createdAt,value
2022-09-23T00:00:00.640Z,91.7
2022-09-23T00:01:00.852Z,91.6
2022-09-23T00:02:01.031Z,91.5
2022-09-23T00:03:01.162Z,91.5
2022-09-23T00:04:01.264Z,91.6
2022-09-23T00:05:00.391Z,91.6
2022-09-23T00:06:00.541Z,91.5
2022-09-23T00:07:00.682Z,91.5
2022-09-23T00:08:00.825Z,91.6
2022-09-23T00:09:01.020Z,91.5
2022-09-23T00:10:01.142Z,91.4
2022-09-23T00:11:00.281Z,91.3
2022-09-23T00:12:00.430Z,91.3
2022-09-23T00:13:00.578Z,91.3
2022-09-23T00:14:00.747Z,91.3
2022-09-23T00:15:00.876Z,91.3
2022-09-23T00:16:01.036Z,91.3
2022-09-23T00:17:01.273Z,91.4
2022-09-23T00:18:00.321Z,91.5
2022-09-23T00:19:00.484Z,91.5
2022-09-23T00:20:00.617Z,91.4
2022-09-23T00:21:00.749Z,91.6
2022-09-23T00:22:00.914Z,91.8
2022-09-23T00:23:01.043Z,92
2022-09-23T00:24:01.273Z,92.2
2022-09-23T00:25:00.371Z,92.2
2022-09-23T00:26:00.528Z,92.3
2022-09-23T00:27:00.672Z,92.2
2022-09-23T00:28:00.817Z,92
2022-09-23T00:29:00.982Z,91.9
2022-09-23T00:30:01.140Z,91.9
2022-09-23T00:31:00.295Z,91.8
2022-09-23T00:32:00.411Z,92
2022-09-23T00:33:00.559Z,92.2
2022-09-23T00:34:00.731Z,92.2
2022-09-23T00:35:00.859Z,92.1
2022-09-23T00:36:01.000Z,92
2022-09-23T00:37:01.135Z,92
2022-09-23T00:38:00.287Z,92
2022-09-23T00:39:00.427Z,92
2022-09-23T00:40:00.606Z,92.1
2022-09-23T00:41:00.720Z,92.4
2022-09-23T00:42:00.865Z,92.4
2022-09-23T00:43:01.020Z,92.5
2022-09-23T00:44:01.164Z,92.6
2022-09-23T00:45:00.320Z,92.6
2022-09-23T00:46:00.525Z,92.7
2022-09-23T00:47:00.602Z,92.7
2022-09-23T00:48:00.751Z,92.8
2022-09-23T00:49:00.901Z,92.8
2022-09-23T00:50:01.052Z,92.8
2022-09-23T00:51:01.210Z,92.9
2022-09-23T00:52:00.355Z,92.9
2022-09-23T00:53:00.512Z,92.9
2022-09-23T00:54:00.762Z,92.9
2022-09-23T00:55:00.813Z,93
2022-09-23T00:56:00.960Z,93
2022-09-23T00:57:01.135Z,93
2022-09-23T00:58:01.250Z,93
2022-09-23T00:59:00.412Z,93
2022-09-23T01:00:00.543Z,93
2022-09-23T01:01:00.770Z,93.1
2022-09-23T01:02:00.920Z,93.1
2022-09-23T01:03:00.967Z,93.1
2022-09-23T01:04:01.122Z,93.1
2022-09-23T01:05:00.260Z,93.1
2022-09-23T01:06:00.403Z,93
2022-09-23T01:07:00.547Z,93.1
2022-09-23T01:08:00.700Z,93.1
2022-09-23T01:09:00.872Z,93.1
2022-09-23T01:10:01.013Z,93.1
2022-09-23T01:11:01.131Z,93
2022-09-23T01:12:00.259Z,93
2022-09-23T01:13:00.401Z,93
2022-09-23T01:14:00.559Z,93
2022-09-23T01:15:00.739Z,93
2022-09-23T01:16:00.856Z,93
2022-09-23T01:17:01.069Z,93
2022-09-23T01:18:01.158Z,92.9
2022-09-23T01:19:00.302Z,93
2022-09-23T01:20:00.473Z,92.9
2022-09-23T01:21:00.597Z,92.8
2022-09-23T01:22:00.744Z,92.7
2022-09-23T01:23:00.893Z,92.5
2022-09-23T01:24:01.042Z,92.4
2022-09-23T01:25:01.207Z,92.3
2022-09-23T01:26:00.336Z,92.1
2022-09-23T01:27:00.511Z,92.1
2022-09-23T01:28:00.633Z,91.9
2022-09-23T01:29:00.784Z,91.8
2022-09-23T01:30:00.965Z,91.7
2022-09-23T01:31:01.172Z,91.7
2022-09-23T01:32:01.236Z,91.7
2022-09-23T01:33:00.381Z,91.6
2022-09-23T01:34:00.541Z,91.7
2022-09-23T01:35:00.717Z,91.8
2022-09-23T01:36:00.845Z,91.7
2022-09-23T01:37:00.991Z,91.5
2022-09-23T01:38:04.072Z,91.5
2022-09-23T01:39:00.365Z,91.6
2022-09-23T01:40:00.467Z,91.8
2022-09-23T01:41:00.587Z,91.8
2022-09-23T01:42:00.738Z,92
2022-09-23T01:43:00.891Z,92
2022-09-23T01:44:01.040Z,91.9
2022-09-23T01:45:01.214Z,91.8
2022-09-23T01:46:00.332Z,91.8
2022-09-23T01:47:00.482Z,91.7
2022-09-23T01:48:00.701Z,91.7
2022-09-23T01:49:00.890Z,91.7
2022-09-23T01:50:00.949Z,91.6
2022-09-23T01:51:01.072Z,91.6
2022-09-23T01:52:01.225Z,91.8
2022-09-23T01:53:00.366Z,92.1
2022-09-23T01:54:00.514Z,92.1
2022-09-23T01:55:00.694Z,92
2022-09-23T01:56:00.811Z,91.9
2022-09-23T01:57:00.974Z,91.8
2022-09-23T01:58:01.115Z,92.1
2022-09-23T01:59:01.256Z,92.2
2022-09-23T02:00:00.413Z,92
2022-09-23T02:01:00.642Z,92.1
2022-09-23T02:02:00.787Z,92.2
2022-09-23T02:03:00.852Z,92.2
2022-09-23T02:04:01.017Z,92.3
2022-09-23T02:05:01.157Z,92.2
2022-09-23T02:06:00.305Z,92.3
2022-09-23T02:07:00.446Z,92.3
2022-09-23T02:08:00.593Z,92.4
2022-09-23T02:09:00.774Z,92.3
2022-09-23T02:10:00.909Z,92.2
2022-09-23T02:11:01.069Z,92.2
2022-09-23T02:12:01.200Z,92.2
2022-09-23T02:13:00.359Z,92.3
2022-09-23T02:14:00.509Z,92.4
2022-09-23T02:15:00.648Z,92.5
2022-09-23T02:16:00.786Z,92.5
2022-09-23T02:17:01.014Z,92.4
2022-09-23T02:18:01.090Z,92.4
2022-09-23T02:19:01.247Z,92.6
2022-09-23T02:20:00.380Z,92.7
2022-09-23T02:21:00.538Z,92.6
2022-09-23T02:22:00.682Z,92.5
2022-09-23T02:23:00.828Z,92.4
2022-09-23T02:24:00.993Z,92.5
2022-09-23T02:25:01.114Z,92.7
2022-09-23T02:26:00.263Z,92.9
2022-09-23T02:27:00.402Z,93.1
2022-09-23T02:28:00.555Z,93.1
2022-09-23T02:29:00.734Z,93.2
2022-09-23T02:30:00.849Z,93.2
2022-09-23T02:31:01.006Z,93.3
2022-09-23T02:32:01.195Z,93.3
2022-09-23T02:33:00.286Z,93.3
2022-09-23T02:34:00.454Z,93.3
2022-09-23T02:35:00.618Z,93.3
2022-09-23T02:36:00.744Z,93.3
2022-09-23T02:37:00.884Z,93.3
2022-09-23T02:38:01.031Z,93.3
2022-09-23T02:39:01.169Z,93.3
2022-09-23T02:40:00.332Z,93.3
2022-09-23T02:41:00.481Z,93.4
2022-09-23T02:42:00.609Z,93.4
2022-09-23T02:43:00.760Z,93.4
2022-09-23T02:44:00.902Z,93.4
2022-09-23T02:45:01.059Z,93.4
2022-09-23T02:46:01.306Z,93.4
2022-09-23T02:47:00.347Z,93.4
2022-09-23T02:48:00.496Z,93.4
2022-09-23T02:49:00.628Z,93.4
2022-09-23T02:50:00.789Z,93.5
2022-09-23T02:51:00.962Z,93.5
2022-09-23T02:52:01.092Z,93.5
2022-09-23T02:53:01.226Z,93.6
2022-09-23T02:54:00.368Z,93.6
2022-09-23T02:55:00.528Z,93.6
2022-09-23T02:56:00.683Z,93.6
2022-09-23T02:57:00.815Z,93.6
2022-09-23T02:58:00.956Z,93.6
2022-09-23T02:59:01.106Z,93.6
2022-09-23T03:00:00.265Z,93.6
2022-09-23T03:01:00.497Z,93.6
2022-09-23T03:02:00.669Z,93.6
2022-09-23T03:03:00.703Z,93.5
2022-09-23T03:04:00.870Z,93.5
2022-09-23T03:05:01.010Z,93.5
2022-09-23T03:06:01.155Z,93.4
2022-09-23T03:07:00.292Z,93.4
2022-09-23T03:08:00.445Z,93.4
2022-09-23T03:09:00.612Z,93.5
2022-09-23T03:10:00.742Z,93.5
2022-09-23T03:11:00.883Z,93.6
2022-09-23T03:12:01.040Z,93.6
2022-09-23T03:13:01.178Z,93.6
2022-09-23T03:14:00.349Z,93.5
2022-09-23T03:15:00.458Z,93.6
2022-09-23T03:16:00.790Z,93.6
2022-09-23T03:17:00.771Z,93.6
2022-09-23T03:18:00.915Z,93.6
2022-09-23T03:19:01.076Z,93.7
2022-09-23T03:20:01.225Z,93.7
2022-09-23T03:21:00.364Z,93.7
2022-09-23T03:22:00.498Z,93.6
2022-09-23T03:23:00.649Z,93.6
2022-09-23T03:24:00.795Z,93.6
2022-09-23T03:25:00.974Z,93.6
2022-09-23T03:26:01.100Z,93.6
2022-09-23T03:27:01.239Z,93.6
2022-09-23T03:28:00.375Z,93.6
2022-09-23T03:29:00.544Z,93.6
2022-09-23T03:30:00.694Z,93.5
2022-09-23T03:31:00.832Z,93.5
2022-09-23T03:32:01.054Z,93.5
2022-09-23T03:33:01.127Z,93.5
2022-09-23T03:34:00.273Z,93.4
2022-09-23T03:35:00.450Z,93.4
2022-09-23T03:36:00.577Z,93.3
2022-09-23T03:37:00.729Z,93.3
2022-09-23T03:38:00.871Z,93.3
2022-09-23T03:39:01.075Z,93.2
2022-09-23T03:40:01.193Z,93.1
2022-09-23T03:41:00.315Z,92.9
2022-09-23T03:42:00.457Z,92.8
2022-09-23T03:43:00.603Z,92.9
2022-09-23T03:44:00.755Z,93
2022-09-23T03:45:00.924Z,93.2
2022-09-23T03:46:01.074Z,93.2
2022-09-23T03:47:01.199Z,93.2
2022-09-23T03:48:00.340Z,93.3
2022-09-23T03:49:00.568Z,93.3
2022-09-23T03:50:00.641Z,93.4
2022-09-23T03:51:00.786Z,93.4
2022-09-23T03:52:00.929Z,93.4
2022-09-23T03:53:01.073Z,93.4
2022-09-23T03:54:01.248Z,93.5
2022-09-23T03:55:00.360Z,93.6
2022-09-23T03:56:00.534Z,93.6
2022-09-23T03:57:00.667Z,93.6
2022-09-23T03:58:00.815Z,93.5
2022-09-23T03:59:00.986Z,93.4
2022-09-23T04:00:01.103Z,93.4
2022-09-23T04:01:01.360Z,93.4
2022-09-23T04:02:00.504Z,93.4
2022-09-23T04:03:00.542Z,93.3
2022-09-23T04:04:00.717Z,93.4
2022-09-23T04:05:00.839Z,93.4
2022-09-23T04:06:00.994Z,93.4
2022-09-23T04:07:01.136Z,93.4
2022-09-23T04:08:00.282Z,93.4
2022-09-23T04:09:00.434Z,93.4
2022-09-23T04:10:00.610Z,93.3
2022-09-23T04:11:00.727Z,93.3
2022-09-23T04:12:00.876Z,93.3
2022-09-23T04:13:01.025Z,93.3
2022-09-23T04:14:01.175Z,93.3
2022-09-23T04:15:00.328Z,93.4
2022-09-23T04:16:00.550Z,93.4
2022-09-23T04:17:00.607Z,93.4
2022-09-23T04:18:00.755Z,93.4
2022-09-23T04:19:00.908Z,93.4
2022-09-23T04:20:01.066Z,93.3
2022-09-23T04:21:01.527Z,93.4
2022-09-23T04:22:00.346Z,93.4
2022-09-23T04:23:00.502Z,93.4
2022-09-23T04:24:00.746Z,93.4
2022-09-23T04:25:00.842Z,93.4
2022-09-23T04:26:00.956Z,93.4
2022-09-23T04:27:01.106Z,93.4
2022-09-23T04:28:01.255Z,93.4
2022-09-23T04:29:00.417Z,93.4
2022-09-23T04:30:00.549Z,93.4
2022-09-23T04:31:00.695Z,93.4
2022-09-23T04:32:00.945Z,93.4
2022-09-23T04:33:01.006Z,93.4
2022-09-23T04:34:01.158Z,93.4
2022-09-23T04:35:00.294Z,93.4
2022-09-23T04:36:00.447Z,93.4
2022-09-23T04:37:00.607Z,93.4
2022-09-23T04:38:00.743Z,93.5
2022-09-23T04:39:00.929Z,93.5
2022-09-23T04:40:01.057Z,93.5
2022-09-23T04:41:01.205Z,93.5
2022-09-23T04:42:00.344Z,93.5
2022-09-23T04:43:00.512Z,93.5
2022-09-23T04:44:00.665Z,93.5
2022-09-23T04:45:00.817Z,93.5
2022-09-23T04:46:00.983Z,93.5
2022-09-23T04:47:01.185Z,93.5
2022-09-23T04:48:01.247Z,93.5
2022-09-23T04:49:00.493Z,93.5
2022-09-23T04:50:00.561Z,93.4
2022-09-23T04:51:00.721Z,93.4
2022-09-23T04:52:00.846Z,93.4
2022-09-23T04:53:00.995Z,93.4
2022-09-23T04:54:01.136Z,93.5
2022-09-23T04:55:00.293Z,93.5
2022-09-23T04:56:00.462Z,93.4
2022-09-23T04:57:00.589Z,93.4
2022-09-23T04:58:00.731Z,93.4
2022-09-23T04:59:00.892Z,93.4
2022-09-23T05:00:01.034Z,93.4
2022-09-23T05:01:05.096Z,93.3
2022-09-23T05:02:00.400Z,93.4
2022-09-23T05:03:00.455Z,93.4
2022-09-23T05:04:00.613Z,93.4
2022-09-23T05:05:00.743Z,93.5
2022-09-23T05:06:00.901Z,93.4
2022-09-23T05:07:03.362Z,93.4
2022-09-23T05:08:01.187Z,93.4
2022-09-23T05:09:00.414Z,93.4
2022-09-23T05:10:00.480Z,93.4
2022-09-23T05:11:00.651Z,93.4
2022-09-23T05:12:00.810Z,93.4
2022-09-23T05:13:00.944Z,93.4
2022-09-23T05:14:01.123Z,93.4
2022-09-23T05:16:00.419Z,93.4
2022-09-23T05:17:00.516Z,93.4
2022-09-23T05:18:00.659Z,93.4
2022-09-23T05:19:00.919Z,93.4
2022-09-23T05:20:00.951Z,93.4
2022-09-23T05:21:01.109Z,93.4
2022-09-23T05:22:01.239Z,93.4
2022-09-23T05:23:00.395Z,93.4
2022-09-23T05:24:00.792Z,93.5
2022-09-23T05:25:00.692Z,93.5
2022-09-23T05:26:00.904Z,93.5
2022-09-23T05:27:00.988Z,93.5
2022-09-23T05:28:01.124Z,93.5
2022-09-23T05:29:00.486Z,93.5
2022-09-23T05:30:00.419Z,93.5
2022-09-23T05:31:00.620Z,93.6
2022-09-23T05:32:00.772Z,93.6
2022-09-23T05:33:00.872Z,93.6
2022-09-23T05:34:01.105Z,93.6
2022-09-23T05:35:01.173Z,93.6
2022-09-23T05:36:00.327Z,93.5
2022-09-23T05:37:00.466Z,93.6
2022-09-23T05:38:00.625Z,93.6
2022-09-23T05:39:00.789Z,93.6
2022-09-23T05:40:00.931Z,93.6
2022-09-23T05:41:01.085Z,93.6
2022-09-23T05:42:01.221Z,93.6
2022-09-23T05:43:00.365Z,93.7
2022-09-23T05:44:00.548Z,93.6
2022-09-23T05:45:00.686Z,93.7
2022-09-23T05:46:02.257Z,93.7
2022-09-23T05:47:01.066Z,93.7
2022-09-23T05:48:01.131Z,93.7
2022-09-23T05:49:03.072Z,93.7
2022-09-23T05:50:00.792Z,93.7
2022-09-23T05:51:00.575Z,93.7
2022-09-23T05:52:00.705Z,93.7
2022-09-23T05:53:00.849Z,93.8
2022-09-23T05:54:01.004Z,93.8
2022-09-23T05:55:01.179Z,93.8
2022-09-23T05:56:00.331Z,93.8
2022-09-23T05:57:04.202Z,93.8
2022-09-23T05:58:00.589Z,93.8
2022-09-23T05:59:00.823Z,93.8
2022-09-23T06:00:00.899Z,93.8
2022-09-23T06:01:01.040Z,93.9
2022-09-23T06:02:01.249Z,93.9
2022-09-23T06:03:00.401Z,93.9
2022-09-23T06:04:00.604Z,93.9
2022-09-23T06:05:00.634Z,93.9
2022-09-23T06:06:00.763Z,93.9
2022-09-23T06:07:03.469Z,93.9
2022-09-23T06:08:01.057Z,93.9
2022-09-23T06:09:01.219Z,93.9
2022-09-23T06:10:00.380Z,93.9
2022-09-23T06:11:00.506Z,94
2022-09-23T06:12:00.647Z,94
2022-09-23T06:13:00.794Z,94
2022-09-23T06:14:00.995Z,94
2022-09-23T06:15:01.093Z,94
2022-09-23T06:16:01.292Z,94
2022-09-23T06:17:00.371Z,94
2022-09-23T06:18:00.507Z,94.1
2022-09-23T06:19:04.456Z,94.1
2022-09-23T06:20:00.833Z,94.1
2022-09-23T06:21:00.959Z,94.1
2022-09-23T06:22:01.111Z,94.2
2022-09-23T06:23:01.255Z,94.2
2022-09-23T06:24:00.392Z,94.2
2022-09-23T06:25:00.579Z,94.3
2022-09-23T06:26:00.681Z,94.2
2022-09-23T06:27:00.827Z,94.2
2022-09-23T06:28:00.979Z,94.2
2022-09-23T06:29:01.125Z,94.2
2022-09-23T06:30:00.288Z,94.2
2022-09-23T06:31:00.477Z,94.3
2022-09-23T06:32:00.662Z,94.2
2022-09-23T06:33:00.716Z,94.2
2022-09-23T06:34:08.306Z,94.1
2022-09-23T06:35:01.018Z,94.1
2022-09-23T06:36:01.156Z,94.1
2022-09-23T06:37:05.902Z,94.1
2022-09-23T06:38:00.453Z,94.1
2022-09-23T06:39:00.614Z,94.1
2022-09-23T06:40:00.746Z,94.1
2022-09-23T06:41:00.881Z,94.1
2022-09-23T06:42:01.039Z,94.1
2022-09-23T06:43:01.178Z,94.1
2022-09-23T06:44:00.344Z,94.2
2022-09-23T06:45:00.496Z,94.2
2022-09-23T06:46:00.620Z,94.2
2022-09-23T06:47:00.837Z,94.3
2022-09-23T06:48:00.915Z,94.3
2022-09-23T06:49:01.076Z,94.3
2022-09-23T06:50:01.243Z,94.4
2022-09-23T06:51:00.362Z,94.4
2022-09-23T06:52:00.511Z,94.5
2022-09-23T06:53:00.656Z,94.5
2022-09-23T06:54:00.804Z,94.6
2022-09-23T06:55:00.960Z,94.7
2022-09-23T06:56:01.102Z,94.7
2022-09-23T06:57:01.250Z,94.8
2022-09-23T06:58:00.402Z,94.8
2022-09-23T06:59:00.555Z,94.8
2022-09-23T07:00:00.680Z,94.8
2022-09-23T07:01:00.827Z,94.8
2022-09-23T07:02:01.166Z,94.8
2022-09-23T07:03:01.190Z,94.8
2022-09-23T07:04:00.307Z,94.8
2022-09-23T07:05:00.429Z,94.9
2022-09-23T07:06:00.586Z,94.9
2022-09-23T07:07:00.734Z,95
2022-09-23T07:08:00.899Z,95
2022-09-23T07:09:01.176Z,95.1
2022-09-23T07:10:01.162Z,95.2
2022-09-23T07:11:00.309Z,95.2
2022-09-23T07:12:00.459Z,95.2
2022-09-23T07:13:00.623Z,95.2
2022-09-23T07:14:00.744Z,95.2
2022-09-23T07:15:00.892Z,95.2
2022-09-23T07:16:01.117Z,95.2
2022-09-23T07:17:01.176Z,95.2
2022-09-23T07:18:00.350Z,95.2
2022-09-23T07:19:00.488Z,95.1
2022-09-23T07:20:00.620Z,95.1
2022-09-23T07:21:00.774Z,95
2022-09-23T07:22:00.930Z,94.9
2022-09-23T07:23:01.069Z,94.8
2022-09-23T07:24:01.221Z,94.6
2022-09-23T07:25:00.351Z,94.6
2022-09-23T07:26:00.503Z,94.5
2022-09-23T07:27:00.682Z,94.4
2022-09-23T07:28:00.799Z,94.2
2022-09-23T07:29:00.955Z,94
2022-09-23T07:30:01.115Z,93.8
2022-09-23T07:31:01.349Z,93.6
2022-09-23T07:32:11.814Z,93.4
2022-09-23T07:33:00.636Z,93.2
2022-09-23T07:34:00.694Z,93
2022-09-23T07:35:00.821Z,92.9
2022-09-23T07:36:00.972Z,92.7
2022-09-23T07:37:01.109Z,92.5
2022-09-23T07:38:00.254Z,92.3
2022-09-23T07:39:00.433Z,91.9
2022-09-23T07:40:00.572Z,91.6
2022-09-23T07:41:00.689Z,91.3
2022-09-23T07:42:00.836Z,91.2
2022-09-23T07:43:00.982Z,90.8
2022-09-23T07:44:01.142Z,90.6
2022-09-23T07:45:00.283Z,90.4
2022-09-23T07:46:00.510Z,90.3
2022-09-23T07:47:00.569Z,90.2
2022-09-23T07:48:00.715Z,90
2022-09-23T07:49:00.891Z,89.8
2022-09-23T07:50:01.012Z,89.5
2022-09-23T07:51:01.165Z,89.3
2022-09-23T07:52:00.311Z,89
2022-09-23T07:53:00.467Z,88.8
2022-09-23T07:54:00.609Z,88.6
2022-09-23T07:55:00.777Z,88.4
2022-09-23T07:56:00.892Z,88.2
2022-09-23T07:57:01.027Z,87.9
2022-09-23T07:58:01.200Z,87.6
2022-09-23T07:59:00.807Z,87.5
2022-09-23T08:00:00.488Z,87.5
2022-09-23T08:01:00.619Z,87.4
2022-09-23T08:02:00.842Z,87.4
2022-09-23T08:03:00.995Z,87.2
2022-09-23T08:04:01.069Z,86.9
2022-09-23T08:05:01.247Z,86.1
2022-09-23T08:06:00.371Z,86.4
2022-09-23T08:07:00.517Z,86.6
2022-09-23T08:08:00.655Z,86.3
2022-09-23T08:09:00.888Z,85.9
2022-09-23T08:10:00.963Z,86
2022-09-23T08:11:01.106Z,86.1
2022-09-23T08:12:01.238Z,86.1
2022-09-23T08:13:00.383Z,86
2022-09-23T08:14:00.536Z,85.7
2022-09-23T08:15:00.698Z,85.5
2022-09-23T08:16:00.896Z,85.2
2022-09-23T08:17:00.969Z,85
2022-09-23T08:18:01.112Z,84.9
2022-09-23T08:19:00.311Z,84.8
2022-09-23T08:20:00.438Z,84.9
2022-09-23T08:21:00.557Z,84.8
2022-09-23T08:22:00.700Z,83.6
2022-09-23T08:23:00.849Z,83.5
2022-09-23T08:24:01.015Z,83.6
2022-09-23T08:25:01.145Z,84
2022-09-23T08:26:00.287Z,84.1
2022-09-23T08:27:00.432Z,83.8
2022-09-23T08:28:00.598Z,83.5
2022-09-23T08:29:00.748Z,83.7
2022-09-23T08:30:00.903Z,84
2022-09-23T08:31:01.125Z,83.4
2022-09-23T08:32:01.176Z,83
2022-09-23T08:33:00.330Z,82.4
2022-09-23T08:34:00.541Z,81.9
2022-09-23T08:35:00.633Z,81.7
2022-09-23T08:36:00.785Z,82.1
2022-09-23T08:37:00.911Z,82.1
2022-09-23T08:38:01.077Z,81.7
2022-09-23T08:39:01.200Z,81.8
2022-09-23T08:40:00.369Z,81.8
2022-09-23T08:41:00.502Z,82.1
2022-09-23T08:42:00.643Z,82.3
2022-09-23T08:43:00.797Z,82
2022-09-23T08:44:00.961Z,81.2
2022-09-23T08:45:01.088Z,81.7
2022-09-23T08:46:01.365Z,82.1
2022-09-23T08:47:00.384Z,81.4
2022-09-23T08:48:00.531Z,81.2
2022-09-23T08:49:00.696Z,81.8
2022-09-23T08:50:00.836Z,81.6
2022-09-23T08:51:00.969Z,81.5
2022-09-23T08:52:01.117Z,80.8
2022-09-23T08:53:00.260Z,80.7
2022-09-23T08:54:00.427Z,80.5
2022-09-23T08:55:00.547Z,80.5
2022-09-23T08:56:00.697Z,80.4
2022-09-23T08:57:00.833Z,80.5
2022-09-23T08:58:23.943Z,80.5
2022-09-23T08:59:01.146Z,80.5
2022-09-23T09:00:00.277Z,79.8
2022-09-23T09:01:00.558Z,79.9
2022-09-23T09:02:00.559Z,80.4
2022-09-23T09:03:00.715Z,80.5
2022-09-23T09:04:00.890Z,81.3
2022-09-23T09:05:01.027Z,80.7
2022-09-23T09:06:01.156Z,80.3
2022-09-23T09:07:24.569Z,80.2
2022-09-23T09:08:00.452Z,80.1
2022-09-23T09:09:00.697Z,79.2
2022-09-23T09:10:00.742Z,78.9
2022-09-23T09:11:00.903Z,79.4
2022-09-23T09:12:01.048Z,80
2022-09-23T09:13:01.198Z,79.6
2022-09-23T09:14:00.360Z,79.8
2022-09-23T09:15:00.496Z,79
2022-09-23T09:16:00.686Z,78.3
2022-09-23T09:17:01.500Z,79
2022-09-23T09:18:00.936Z,78.8
2022-09-23T09:19:01.099Z,79.4
2022-09-23T09:20:01.236Z,79.2
2022-09-23T09:21:00.372Z,78.8
2022-09-23T09:22:00.536Z,78.2
2022-09-23T09:23:00.741Z,77.1
2022-09-23T09:24:00.827Z,77.5
2022-09-23T09:25:00.961Z,76.2
2022-09-23T09:26:01.114Z,75.7
2022-09-23T09:28:00.370Z,77
2022-09-23T09:29:16.806Z,76.5
2022-09-23T09:30:00.647Z,76.4
2022-09-23T09:31:00.846Z,75.9
2022-09-23T09:32:00.946Z,76.6
2022-09-23T09:33:01.111Z,75.9
2022-09-23T09:34:01.238Z,75
2022-09-23T09:35:00.407Z,75.9
2022-09-23T09:36:00.541Z,76.3
2022-09-23T09:37:06.175Z,74.7
2022-09-23T09:38:00.846Z,75.1
2022-09-23T09:39:01.017Z,75.3
2022-09-23T09:40:01.124Z,74.5
2022-09-23T09:41:00.275Z,73.1
2022-09-23T09:42:00.438Z,72.8
2022-09-23T09:43:00.571Z,73.9
2022-09-23T09:44:00.977Z,74.2
2022-09-23T09:45:00.875Z,74.3
2022-09-23T09:46:01.013Z,73.9
2022-09-23T09:47:01.290Z,73.6
2022-09-23T09:48:00.305Z,73.9
2022-09-23T09:49:00.583Z,73.9
2022-09-23T09:50:00.607Z,73.7
2022-09-23T09:51:00.750Z,74.2
2022-09-23T09:52:00.895Z,73.1
2022-09-23T09:53:00.992Z,71.9
2022-09-23T09:54:01.154Z,72.7
2022-09-23T09:55:00.268Z,74.2
2022-09-23T09:56:04.595Z,73.9
2022-09-23T09:57:00.592Z,71.7
2022-09-23T09:58:00.713Z,72.1
2022-09-23T09:59:00.873Z,73.4
2022-09-23T10:00:01.017Z,73
2022-09-23T10:01:01.230Z,72.9
2022-09-23T10:02:00.282Z,72.3
2022-09-23T10:03:00.428Z,71
2022-09-23T10:04:00.590Z,70.9
2022-09-23T10:05:00.739Z,71.4
2022-09-23T10:06:00.907Z,73
2022-09-23T10:07:01.034Z,72.2
2022-09-23T10:08:01.237Z,69.2
2022-09-23T10:09:00.381Z,70.1
2022-09-23T10:10:05.992Z,69.3
2022-09-23T10:11:00.638Z,69.9
2022-09-23T10:12:00.786Z,69.4
2022-09-23T10:13:00.924Z,70.7
2022-09-23T10:14:01.065Z,72.2
2022-09-23T10:15:00.212Z,72.7
2022-09-23T10:16:00.378Z,72.7
2022-09-23T10:17:00.595Z,72.4
2022-09-23T10:18:00.739Z,73.1
2022-09-23T10:19:00.832Z,71.2
2022-09-23T10:20:01.016Z,71.5
2022-09-23T10:21:01.094Z,72.8
2022-09-23T10:22:00.356Z,74.5
2022-09-23T10:23:00.400Z,72.8
2022-09-23T10:24:00.523Z,72.5
2022-09-23T10:25:00.671Z,71.9
2022-09-23T10:26:00.829Z,72.7
2022-09-23T10:27:00.965Z,73.6
2022-09-23T10:28:03.627Z,73.3
2022-09-23T10:29:00.293Z,71.7
2022-09-23T10:30:00.412Z,70
2022-09-23T10:31:00.597Z,71.7
2022-09-23T10:32:00.714Z,70.5
2022-09-23T10:33:00.863Z,69.9
2022-09-23T10:34:01.004Z,70.5
2022-09-23T10:35:01.142Z,72
2022-09-23T10:36:00.317Z,71.6
2022-09-23T10:37:00.468Z,71.6
2022-09-23T10:38:00.665Z,71.9
2022-09-23T10:39:00.895Z,68.9
2022-09-23T10:40:00.908Z,69.2
2022-09-23T10:41:01.242Z,69.2
2022-09-23T10:42:00.213Z,68.2
2022-09-23T10:43:00.356Z,67.8
2022-09-23T10:44:00.656Z,68.2
2022-09-23T10:45:00.680Z,66.7
2022-09-23T10:46:00.864Z,68.1
2022-09-23T10:47:00.976Z,67.8
2022-09-23T10:48:01.089Z,69.2
2022-09-23T10:49:00.234Z,70.6
2022-09-23T10:50:00.379Z,69.5
2022-09-23T10:51:00.528Z,70.2
2022-09-23T10:52:00.699Z,68.8
2022-09-23T10:53:00.823Z,67.7
2022-09-23T10:54:00.976Z,67.7
2022-09-23T10:55:01.122Z,68.5
2022-09-23T10:56:00.276Z,69.9
2022-09-23T10:57:00.444Z,70.4
2022-09-23T10:58:00.555Z,70.5
2022-09-23T10:59:00.715Z,70.9
2022-09-23T11:00:00.863Z,69.5
2022-09-23T11:01:01.052Z,69.6
2022-09-23T11:02:01.165Z,70.5
2022-09-23T11:03:00.291Z,69.8
2022-09-23T11:04:00.493Z,70.2
2022-09-23T11:05:00.617Z,68.7
2022-09-23T11:06:00.719Z,69.1
2022-09-23T11:07:00.891Z,68.8
2022-09-23T11:08:01.006Z,70.2
2022-09-23T11:09:01.161Z,72.5
2022-09-23T11:10:00.300Z,71.1
2022-09-23T11:11:00.445Z,68.6
2022-09-23T11:12:00.623Z,66.9
2022-09-23T11:13:00.749Z,66.9
2022-09-23T11:14:00.919Z,67.9
2022-09-23T11:15:01.041Z,68.5
2022-09-23T11:16:01.203Z,68.9
2022-09-23T11:17:00.392Z,70.4
2022-09-23T11:18:00.475Z,69.8
2022-09-23T11:19:00.645Z,71.6
2022-09-23T11:20:00.773Z,70.5
2022-09-23T11:21:00.918Z,67.4
2022-09-23T11:22:01.068Z,68.1
2022-09-23T11:23:01.213Z,70.2
2022-09-23T11:24:00.421Z,69.3
2022-09-23T11:25:00.495Z,68.4
2022-09-23T11:26:00.655Z,69.3
2022-09-23T11:27:00.806Z,71.5
2022-09-23T11:28:00.959Z,71.6
2022-09-23T11:29:01.115Z,71.6
2022-09-23T11:30:00.241Z,69.8
2022-09-23T11:31:00.449Z,69.4
2022-09-23T11:32:00.528Z,68.5
2022-09-23T11:33:00.702Z,69.7
2022-09-23T11:34:00.894Z,70.1
2022-09-23T11:35:00.997Z,69.3
2022-09-23T11:36:01.130Z,68.7
2022-09-23T11:37:00.249Z,70
2022-09-23T11:38:00.406Z,68.7
2022-09-23T11:39:00.551Z,68.2
2022-09-23T11:40:00.709Z,69.8
2022-09-23T11:41:00.942Z,70.2
2022-09-23T11:42:01.003Z,70
2022-09-23T11:43:01.142Z,70
2022-09-23T11:44:00.386Z,71.6
2022-09-23T11:45:00.462Z,69.7
2022-09-23T11:46:00.628Z,69.4
2022-09-23T11:47:00.721Z,70.7
2022-09-23T11:48:00.862Z,71.6
2022-09-23T11:49:01.013Z,70.9
2022-09-23T11:50:01.179Z,71.5
2022-09-23T11:51:00.338Z,70.6
2022-09-23T11:52:00.459Z,70.2
2022-09-23T11:53:00.611Z,70.2
2022-09-23T11:54:00.809Z,69.4
2022-09-23T11:55:03.894Z,67.5
2022-09-23T11:56:01.075Z,68.1
2022-09-23T11:57:01.204Z,68.2
2022-09-23T11:58:00.363Z,67.6
2022-09-23T11:59:00.666Z,67.9
2022-09-23T12:00:00.646Z,64.9
2022-09-23T12:01:01.453Z,68.4
2022-09-23T12:02:11.163Z,67.4
2022-09-23T12:03:05.568Z,63.7
2022-09-23T12:04:05.407Z,66.4
2022-09-23T12:05:00.597Z,66
2022-09-23T12:06:00.674Z,64.5
2022-09-23T12:07:00.709Z,64.4
2022-09-23T12:08:00.835Z,63.2
2022-09-23T12:09:00.987Z,64.8
2022-09-23T12:10:01.132Z,64.1
2022-09-23T12:11:00.280Z,65.5
2022-09-23T12:12:00.441Z,66.3
2022-09-23T12:13:00.588Z,65.5
2022-09-23T12:14:00.883Z,64.2
2022-09-23T12:15:00.871Z,65
2022-09-23T12:16:01.015Z,65.2
2022-09-23T12:17:01.243Z,64.5
2022-09-23T12:18:00.319Z,64.9
2022-09-23T12:19:00.480Z,64.2
2022-09-23T12:20:00.614Z,65.3
2022-09-23T12:21:00.767Z,66
2022-09-23T12:22:00.925Z,65.5
2022-09-23T12:23:01.073Z,66.7
2022-09-23T12:24:01.226Z,67.4
2022-09-23T12:25:00.359Z,67
2022-09-23T12:26:00.528Z,65.9
2022-09-23T12:27:00.657Z,65.7
2022-09-23T12:28:00.811Z,63.2
2022-09-23T12:29:00.947Z,64.8
2022-09-23T12:30:01.107Z,63.2
2022-09-23T12:31:00.325Z,62.4
2022-09-23T12:32:00.412Z,62.3
2022-09-23T12:33:00.547Z,62.4
2022-09-23T12:34:00.710Z,62.5
2022-09-23T12:35:00.827Z,62.6
2022-09-23T12:36:00.980Z,63.2
2022-09-23T12:37:01.142Z,62.6
2022-09-23T12:38:00.263Z,62.4
2022-09-23T12:39:00.421Z,62.1
2022-09-23T12:40:00.562Z,62.2
2022-09-23T12:41:00.687Z,64
2022-09-23T12:42:00.853Z,62.8
2022-09-23T12:43:00.983Z,63.5
2022-09-23T12:44:01.136Z,64.5
2022-09-23T12:45:00.271Z,65.8
2022-09-23T12:46:00.472Z,62.5
2022-09-23T12:47:00.598Z,65.4
2022-09-23T12:48:00.722Z,65.3
2022-09-23T12:49:00.878Z,63.2
2022-09-23T12:50:01.035Z,65.7
2022-09-23T12:51:01.179Z,64.7
2022-09-23T12:52:00.332Z,64.8
2022-09-23T12:53:00.463Z,64.1
2022-09-23T12:54:00.717Z,65.4
2022-09-23T12:55:00.760Z,66.2
2022-09-23T12:56:00.917Z,66
2022-09-23T12:57:01.069Z,65.8
2022-09-23T12:58:01.204Z,60.9
2022-09-23T12:59:00.365Z,61
2022-09-23T13:00:00.505Z,62.6
2022-09-23T13:01:00.790Z,63
2022-09-23T13:02:00.945Z,65.3
2022-09-23T13:03:00.960Z,69.1
2022-09-23T13:04:01.122Z,66.3
2022-09-23T13:05:00.266Z,62.6
2022-09-23T13:06:00.414Z,63.6
2022-09-23T13:07:00.577Z,62.8
2022-09-23T13:08:00.735Z,62
2022-09-23T13:09:00.850Z,63.1
2022-09-23T13:10:01.009Z,65.5
2022-09-23T13:11:01.157Z,67.6
2022-09-23T13:12:00.309Z,64.6
2022-09-23T13:13:00.444Z,65.7
2022-09-23T13:14:00.586Z,63.9
2022-09-23T13:15:00.786Z,64.8
2022-09-23T13:16:00.927Z,61.9
2022-09-23T13:17:01.115Z,63.7
2022-09-23T13:18:01.200Z,63.6
2022-09-23T13:19:00.324Z,63.6
2022-09-23T13:20:00.484Z,64.1
2022-09-23T13:21:00.613Z,63.5
2022-09-23T13:22:00.769Z,65
2022-09-23T13:23:00.955Z,63.1
2022-09-23T13:24:01.098Z,62.2
2022-09-23T13:25:01.222Z,63.4